Aktualne dane pomiarowe

Uwaga, wersja testowa! Automatyczne pobieranie danych za pomocą narzędzi lub skryptów to umożliwiających jest zabronione.

Dane meteo z obszaru Polski uzyskane na podstawie depesz SYNOP pobieranych co godzinę z NWS. Najedź myszką na symbol przedstawiony w tabeli, aby uzyskać informacje co do jego znaczenia. Prosimy pamiętać, że to testowa wersja strony, która jeszcze nie jest ukończona. Stworzono również jest krótki FAQ dotyczący korzystania z tej podstrony Anomalie temperatury w chwili obecnej odniesione są do okresu referencyjnego 1951-2016. Okres ten będzie później zmieniony na 1981-2010. Kliknij ikonę aby pobrać plik CSV. Kliknij ikonę aby wygenerować mapę synoptyczną dla danego terminu.

Wybierz Datę:    

        

Zakopane (12625)

Dane terminowe dla wybranej stacji. Kliknij datę, aby otrzymać dane z tego terminu dla wszystkich stacji.

TemperaturaZachmurzenieWiatrCiśnienieOpadyPogoda
 Data t td wb tx tn tg rh  Nt Nl Cl Cm Ch ws wd g1 g2 wx mslp ppp ch 24h 12h t ww ww w1 w2  
2019-07-12 23:00:00 12.2 9.6 10.5--- 8415.0wxwxwxwx1wx--1- 914.4 -0.1---------
2019-07-12 22:00:00 12.5 9.7 10.6--- 8315.0wxwxwxwx1wx---- 914.4 0.1---------
2019-07-12 21:00:00 12.9 9.7 10.8--- 8120.0wxwxwxwx0---0- 914.3 0.1---------
2019-07-12 20:00:00 13.5 9.5 10.9--- 7730.0wxwxwxwx1wx--1- 914.5 0.5---------
2019-07-12 19:00:00 14.4 8.8 11.0--- 6950.0wxwxwxwx0---0- 914.3 0.3---------
2019-07-12 18:00:00 15.5 8.7 11.4 19.6 14.1- 6445.0wxwxwx0---0- 914.2 0.0- 0.012------
2019-07-12 17:00:00 16.0 9.0 11.8--- 6345.0wxwxwx1wx--1- 914.0 -0.2---------
2019-07-12 16:00:00 16.6 7.5 11.4--- 5545.0wxwxwx2wx--2- 914.0 -0.3---------
2019-07-12 15:00:00 17.3 7.3 11.6--- 5245.0wxwxwxwx2wx--2- 914.2 -0.5---------
2019-07-12 14:00:00 18.5 4.3 11.0--- 3940.0wxwxwxwxwx2wx--2- 914.2 -0.8---------
2019-07-12 13:00:00 19.3 3.4 11.0--- 3540.0wxwxwxwxwx1wx--1- 914.3 -1.1---------
2019-07-12 12:00:00 19.0 4.0 11.1--- 3730.0wxwxwxwx1wx--1- 914.7 -0.7- 0.06------
2019-07-12 11:00:00 18.1 3.5 10.5--- 3845.0wxwxwxwxwx2wx--2- 915.0 -0.4---------
2019-07-12 10:00:00 17.1 4.7 10.4--- 4440.0wxwxwxwx1wx--1- 915.4 -0.2---------
2019-07-12 09:00:00 17.4 2.5 9.8--- 3740.0wxwxwxwxwx2wx---- 915.4 -0.2---------
2019-07-12 08:00:00 17.2 3.8 10.2--- 4135.0wxwxwxwxwx2wx--2- 915.4 -0.3---------
2019-07-12 07:00:00 16.4 4.4 10.0--- 4540.0wxwxwxwxwx1wx--1- 915.6 -0.4---------
2019-07-12 06:00:00 14.1 6.0 9.5 14.1 5.4 4 5840.0wxwxwxwx1wx--1- 915.6 -0.3 5.4 0.012----- 2.8
2019-07-12 05:00:00 10.4 6.3 7.9--- 7645.0wxwxwxwx1wx---- 915.7 -0.2---------
2019-07-12 04:00:00 6.4 5.3 5.6--- 9345.0wxwxwxwx1wx--1- 916.0 0.0---------
2019-07-12 03:00:00 5.5 4.6 4.8--- 9435.0wxwxwxwx1wx--1- 915.9 -0.2---------
2019-07-12 02:00:00 5.5 4.8 5.0--- 9520.0wxwxwx1wx--1- 915.9 -0.6---------
2019-07-12 01:00:00 6.0 5.1 5.3--- 9430.0wx-1wx--1- 916.0 -0.6---------
2019-07-12 00:00:00 6.1 5.2 5.4--- 9425.0wx-1wx--1- 916.1 -0.5- 0.06------
2019-07-11 23:00:00 6.7 5.5 5.9--- 9220.0wx-1wx--1- 916.5 -0.1---------
2019-07-11 22:00:00 7.0 5.9 6.2--- 9325.0wx-2wx--2- 916.6 0.5---------
2019-07-11 21:00:00 7.5 6.3 6.7--- 9215.0wx-1wx--1- 916.6 1.0---------
2019-07-11 20:00:00 8.4 7.0 7.4--- 9120.0wxwxwx1wx--1- 916.6 1.3---------
2019-07-11 19:00:00 9.7 7.8 8.4--- 8825.0wxwxwxwx1wx--1- 916.1 0.8---------
2019-07-11 18:00:00 11.7 8.2 9.5 14.2 9.1- 7930.0wxwxwxwx1wx-71- 915.6 0.3- 5.012wx-w1--
2019-07-11 17:00:00 13.3 7.1 9.6--- 6650.0wxwxwx2wx--2- 915.3 -0.3---------
2019-07-11 16:00:00 13.1 8.8 10.4--- 7540.0wxwxwx0---0- 915.3 -0.4---wx---
2019-07-11 15:00:00 13.3 7.5 9.8--- 6835.0wxwxwx2wx-72- 915.3 -0.3---------
2019-07-11 14:00:00 13.1 8.0 10.0--- 7135.0wxwxwx2wx772- 915.6 0.0---------
2019-07-11 13:00:00 9.8 7.6 8.3--- 8630.0wxwxwx2wx--2- 915.7 -0.3---wx---
2019-07-11 12:00:00 9.1 7.0 7.7--- 8720.0wxwxwx2wx-82- 915.6 -0.1- 5.06wx-w1w2--
2019-07-11 11:00:00 10.5 7.2 8.4--- 801.0wxwxwx1wx--1- 915.6 0.2---wx-w1--
2019-07-11 10:00:00 10.6 6.5 8.1--- 7630.0wxwxwx3wx--3- 916.0 0.8---wx---
2019-07-11 09:00:00 10.8 7.8 8.9--- 8240.0wxwxwx2wx-82- 915.7 0.2---wx-w1--
2019-07-11 08:00:00 11.1 7.6 8.9--- 7920.0wxwxwx3wx--3- 915.4 0.1---wx---
2019-07-11 07:00:00 11.7 8.4 9.6--- 8040.0wxwxwxwxwx1wx---- 915.2 -0.1---------
2019-07-11 06:00:00 9.7 8.5 8.8 11.0 7.2 6 9230.0wxwxwx1wx--1- 915.5 0.0 1.4 1.012wx-- 1.4
2019-07-11 05:00:00 9.7 7.3 8.1--- 8520.0wxwxwx1wx--1- 915.3 -0.7---------
2019-07-11 04:00:00 8.9 6.5 7.3--- 8545.0wxwxwx1wx--1- 915.3 -1.0---------
2019-07-11 03:00:00 8.2 6.2 6.9--- 8750.0wxwxwxwx1wx--1- 915.5 -1.2---------
2019-07-11 02:00:00 8.4 6.5 7.1--- 8850.0wxwxwx1wx--1- 916.0 -0.9---------
2019-07-11 01:00:00 7.2 6.1 6.4--- 9330.0wxwxwx1wx--1- 916.3 -0.9---------
2019-07-11 00:00:00 8.0 6.1 6.7--- 8840.0wxwxwx1wx--1- 916.7 -0.6- 0.26wx-w1--
1.1 ms

 

Print Friendly, PDF & Email